Time;durP1;ratioP1;P1;durP2;ratioP2;P2;SDS_P1;SDS_P2;PMS_P1;PMS_P2;Temp;Humidity;BMP_temperature;BMP_pressure;BME280_temperature;BME280_humidity;BME280_pressure;Samples;Min_cycle;Max_cycle;Signal;HPM_P1;HPM_P2
2022/03/26 00:01:29;;;;;;;51.70;23.55;;;9.20;99.90;;;;;;5016530;28;20017;-73
2022/03/26 00:03:55;;;;;;;50.72;23.00;;;9.20;99.90;;;;;;5016548;28;20030;-73
2022/03/26 00:06:21;;;;;;;52.78;23.48;;;9.20;99.90;;;;;;5016255;28;20092;-73
2022/03/26 00:08:49;;;;;;;50.03;23.52;;;9.10;99.90;;;;;;5016418;28;20026;-73
2022/03/26 00:11:17;;;;;;;49.83;23.42;;;9.10;99.90;;;;;;5016328;28;20050;-74
2022/03/26 00:13:43;;;;;;;49.65;23.15;;;9.00;99.90;;;;;;5002092;28;20053;-73
2022/03/26 00:16:08;;;;;;;46.53;22.65;;;9.00;99.90;;;;;;5019211;28;20034;-74
2022/03/26 00:18:34;;;;;;;45.40;22.70;;;8.90;99.90;;;;;;5000727;28;20015;-73
2022/03/26 00:20:59;;;;;;;47.53;22.65;;;8.90;99.90;;;;;;5000825;28;20055;-73
2022/03/26 00:23:25;;;;;;;47.92;23.17;;;8.80;99.90;;;;;;5000851;28;20079;-73
2022/03/26 00:25:51;;;;;;;48.90;22.52;;;8.80;99.90;;;;;;5000403;28;20047;-73
2022/03/26 00:28:16;;;;;;;51.72;23.52;;;8.70;99.90;;;;;;5000081;28;20050;-73
2022/03/26 00:30:42;;;;;;;51.58;21.58;;;8.70;99.90;;;;;;5000540;28;20035;-73
2022/03/26 00:33:08;;;;;;;47.75;22.58;;;8.60;99.90;;;;;;5000080;28;20029;-73
2022/03/26 00:35:33;;;;;;;45.65;21.85;;;8.60;99.90;;;;;;5000533;28;20112;-72
2022/03/26 00:37:59;;;;;;;52.28;22.60;;;8.50;99.90;;;;;;5016557;28;20026;-72
2022/03/26 00:40:25;;;;;;;51.75;22.52;;;8.50;99.90;;;;;;5019787;28;20027;-73
2022/03/26 00:42:50;;;;;;;48.03;23.15;;;8.50;99.90;;;;;;5019930;28;20023;-73
2022/03/26 00:45:16;;;;;;;44.35;22.10;;;8.40;99.90;;;;;;5019907;28;20030;-73
2022/03/26 00:47:42;;;;;;;49.13;23.02;;;8.40;99.90;;;;;;5015999;28;20030;-72
2022/03/26 00:50:08;;;;;;;48.63;22.67;;;8.30;99.90;;;;;;5019212;28;20014;-73
2022/03/26 00:52:34;;;;;;;44.90;22.35;;;8.30;99.90;;;;;;5019667;28;20014;-72
2022/03/26 00:54:59;;;;;;;49.22;23.15;;;8.30;99.90;;;;;;5019346;28;20265;-73
2022/03/26 00:57:25;;;;;;;47.65;22.30;;;8.20;99.90;;;;;;5018253;28;20094;-73
2022/03/26 00:59:50;;;;;;;49.55;21.55;;;8.20;99.90;;;;;;5018653;28;20024;-73
2022/03/26 01:02:17;;;;;;;48.00;23.48;;;8.10;99.90;;;;;;5019434;28;20041;-72
2022/03/26 01:04:42;;;;;;;52.00;23.60;;;8.10;99.90;;;;;;5019347;28;20018;-73
2022/03/26 01:07:08;;;;;;;52.47;23.60;;;8.10;99.90;;;;;;5017977;28;20034;-69
2022/03/26 01:09:34;;;;;;;50.85;23.88;;;8.10;99.90;;;;;;5018814;28;20134;-70
2022/03/26 01:11:59;;;;;;;54.67;24.65;;;8.10;99.90;;;;;;5018869;28;20010;-72
2022/03/26 01:14:25;;;;;;;52.20;24.10;;;8.10;99.90;;;;;;5018236;28;20050;-73
2022/03/26 01:16:51;;;;;;;55.05;25.27;;;8.10;99.90;;;;;;5018359;28;20018;-75
2022/03/26 01:19:16;;;;;;;52.28;24.48;;;8.10;99.90;;;;;;5018817;28;20050;-73
2022/03/26 01:21:42;;;;;;;58.42;26.20;;;8.20;99.90;;;;;;5019204;28;20015;-73
2022/03/26 01:24:08;;;;;;;55.60;25.52;;;8.10;99.90;;;;;;5018958;28;20053;-73
2022/03/26 01:26:35;;;;;;;55.75;25.70;;;8.10;99.90;;;;;;5016237;28;20417;-72
2022/03/26 01:29:00;;;;;;;60.50;27.08;;;8.10;99.90;;;;;;5018916;28;20030;-73
2022/03/26 01:31:26;;;;;;;59.85;26.65;;;8.10;99.90;;;;;;5018938;28;20036;-72
2022/03/26 01:33:51;;;;;;;51.10;25.25;;;8.10;99.90;;;;;;5018795;28;20015;-73
2022/03/26 01:36:17;;;;;;;54.33;26.20;;;8.10;99.90;;;;;;5012487;28;20030;-73
2022/03/26 01:38:43;;;;;;;53.35;25.88;;;8.10;99.90;;;;;;4998682;28;20034;-73
2022/03/26 01:41:09;;;;;;;54.25;26.08;;;8.10;99.90;;;;;;4998593;28;20074;-72
2022/03/26 01:43:35;;;;;;;55.60;24.95;;;8.10;99.90;;;;;;4999016;28;20019;-73
2022/03/26 01:46:01;;;;;;;52.75;25.90;;;8.10;99.90;;;;;;5005495;28;20078;-73
2022/03/26 01:48:26;;;;;;;55.03;25.95;;;8.10;99.90;;;;;;5018465;28;20015;-73
2022/03/26 01:50:52;;;;;;;58.08;27.05;;;8.10;99.90;;;;;;5017854;28;20038;-72
2022/03/26 01:53:17;;;;;;;61.70;27.50;;;8.10;99.90;;;;;;5002491;28;20050;-73
2022/03/26 01:55:43;;;;;;;61.00;26.30;;;8.10;99.90;;;;;;4999164;28;20035;-72
2022/03/26 01:58:09;;;;;;;57.53;26.45;;;8.10;99.90;;;;;;4998502;28;20015;-73
2022/03/26 02:00:35;;;;;;;61.42;25.55;;;8.10;99.90;;;;;;4998702;28;20057;-72
2022/03/26 02:03:01;;;;;;;59.75;27.30;;;8.10;99.90;;;;;;5012104;28;20023;-72
2022/03/26 02:05:28;;;;;;;56.80;27.00;;;8.10;99.90;;;;;;5015200;28;20054;-73
2022/03/26 02:07:54;;;;;;;56.78;26.25;;;8.10;99.90;;;;;;5017844;28;20035;-71
2022/03/26 02:10:21;;;;;;;59.08;26.85;;;8.10;99.90;;;;;;5017939;28;20018;-72
2022/03/26 02:12:47;;;;;;;59.25;27.95;;;8.10;99.90;;;;;;5017655;28;20050;-71
2022/03/26 02:15:14;;;;;;;58.67;27.25;;;8.10;99.90;;;;;;5017123;28;20046;-72
2022/03/26 02:17:40;;;;;;;54.88;26.48;;;8.10;99.90;;;;;;5017081;28;20018;-71
2022/03/26 02:20:08;;;;;;;59.38;27.42;;;8.10;99.90;;;;;;5017290;28;20050;-69
2022/03/26 02:22:34;;;;;;;62.75;27.83;;;8.10;99.90;;;;;;5017403;28;20122;-71
2022/03/26 02:25:00;;;;;;;59.65;27.17;;;8.10;99.90;;;;;;5017363;28;20086;-71
2022/03/26 02:27:28;;;;;;;61.60;28.65;;;8.10;99.90;;;;;;5002471;28;20042;-72
2022/03/26 02:29:54;;;;;;;64.55;27.60;;;8.10;99.90;;;;;;4997800;28;20019;-72
2022/03/26 02:32:24;;;;;;;63.95;28.67;;;8.10;99.90;;;;;;5011266;28;20030;-73
2022/03/26 02:34:50;;;;;;;57.92;26.27;;;8.00;99.90;;;;;;5017188;28;20134;-72
2022/03/26 02:37:16;;;;;;;61.13;28.10;;;8.00;99.90;;;;;;5008978;28;20532;-71
2022/03/26 02:39:43;;;;;;;65.80;28.40;;;8.00;99.90;;;;;;4997971;28;20026;-72
2022/03/26 02:42:09;;;;;;;61.50;28.13;;;8.00;99.90;;;;;;4997476;28;20079;-72
2022/03/26 02:44:34;;;;;;;64.85;28.75;;;7.90;99.90;;;;;;4997271;28;20037;-72
2022/03/26 02:47:00;;;;;;;62.10;28.20;;;7.90;99.90;;;;;;4981684;28;20446;-72
2022/03/26 02:49:26;;;;;;;64.68;28.50;;;7.90;99.90;;;;;;4997556;28;20038;-72
2022/03/26 02:51:51;;;;;;;59.65;27.60;;;7.90;99.90;;;;;;4997324;28;20050;-71
2022/03/26 02:54:20;;;;;;;67.35;29.08;;;7.90;99.90;;;;;;4996040;28;20292;-70
2022/03/26 02:56:49;;;;;;;60.78;29.25;;;7.80;99.90;;;;;;4998338;28;20037;-72
2022/03/26 02:59:17;;;;;;;66.38;29.05;;;7.80;99.90;;;;;;5015453;28;20026;-72
2022/03/26 03:01:42;;;;;;;59.20;28.35;;;7.80;99.90;;;;;;5016088;28;20025;-72
2022/03/26 03:04:09;;;;;;;62.95;29.30;;;7.80;99.90;;;;;;5016543;28;20019;-71
2022/03/26 03:06:35;;;;;;;67.03;28.10;;;7.70;99.90;;;;;;5016029;28;20031;-72
2022/03/26 03:09:04;;;;;;;62.22;28.83;;;7.70;99.90;;;;;;5015616;28;20022;-72
2022/03/26 03:11:30;;;;;;;64.47;28.98;;;7.70;99.90;;;;;;5016028;28;20078;-72
2022/03/26 03:13:57;;;;;;;65.70;29.45;;;7.70;99.90;;;;;;5015876;28;20022;-72
2022/03/26 03:16:22;;;;;;;63.30;29.58;;;7.60;99.90;;;;;;5015921;28;20010;-71
2022/03/26 03:18:48;;;;;;;71.40;30.98;;;7.60;99.90;;;;;;4999222;28;20034;-72
2022/03/26 03:21:13;;;;;;;69.38;29.92;;;7.50;99.90;;;;;;4996640;28;20056;-72
2022/03/26 03:23:39;;;;;;;64.10;29.05;;;7.50;99.90;;;;;;4996608;28;20094;-70
2022/03/26 03:26:05;;;;;;;63.47;29.25;;;7.50;99.90;;;;;;4996568;28;20025;-72
2022/03/26 03:28:30;;;;;;;69.38;30.95;;;7.50;99.90;;;;;;5007871;28;20031;-71
2022/03/26 03:30:56;;;;;;;68.35;31.00;;;7.50;99.90;;;;;;5016011;28;20030;-72
2022/03/26 03:33:21;;;;;;;66.65;30.90;;;7.50;99.90;;;;;;5015385;28;20019;-72
2022/03/26 03:35:47;;;;;;;69.72;30.58;;;7.50;99.90;;;;;;5015993;28;20038;-71
2022/03/26 03:38:13;;;;;;;67.97;30.70;;;7.50;99.90;;;;;;5014811;28;20041;-71
2022/03/26 03:40:38;;;;;;;68.63;31.15;;;7.50;99.90;;;;;;5015983;28;20094;-71
2022/03/26 03:43:05;;;;;;;67.88;30.88;;;7.50;99.90;;;;;;5016157;28;20022;-72
2022/03/26 03:45:30;;;;;;;70.88;31.98;;;7.50;99.90;;;;;;5015873;28;20011;-71
2022/03/26 03:47:56;;;;;;;68.68;32.92;;;7.50;99.90;;;;;;5006160;28;20042;-72
2022/03/26 03:50:22;;;;;;;72.30;31.13;;;7.50;99.90;;;;;;4995788;28;20026;-71
2022/03/26 03:52:47;;;;;;;70.53;32.50;;;7.50;99.90;;;;;;4996440;28;20023;-71
2022/03/26 03:55:13;;;;;;;78.00;32.78;;;7.50;99.90;;;;;;4994945;28;20023;-72
2022/03/26 03:57:43;;;;;;;76.82;34.35;;;7.50;99.90;;;;;;5001461;28;20103;-71
2022/03/26 04:00:10;;;;;;;79.90;34.70;;;7.50;99.90;;;;;;5015921;28;20026;-71
2022/03/26 04:02:36;;;;;;;83.22;36.35;;;7.50;99.90;;;;;;5015626;28;20057;-70
2022/03/26 04:05:01;;;;;;;81.18;35.03;;;7.50;99.90;;;;;;5016099;28;20022;-71
2022/03/26 04:07:27;;;;;;;88.72;36.97;;;7.50;99.90;;;;;;4993821;28;20037;-71
2022/03/26 04:09:52;;;;;;;81.82;35.97;;;7.50;99.90;;;;;;4995891;28;20023;-71
2022/03/26 04:12:18;;;;;;;88.90;36.67;;;7.50;99.90;;;;;;4995905;28;20054;-71
2022/03/26 04:14:44;;;;;;;88.45;38.20;;;7.50;99.90;;;;;;4995515;28;20057;-71
2022/03/26 04:17:11;;;;;;;87.15;37.80;;;7.50;99.90;;;;;;4997438;28;20086;-71
2022/03/26 04:19:36;;;;;;;86.13;37.60;;;7.50;99.90;;;;;;4996476;28;20031;-72
2022/03/26 04:22:02;;;;;;;85.90;38.67;;;7.50;99.90;;;;;;4996088;28;20023;-71
2022/03/26 04:24:28;;;;;;;83.20;37.70;;;7.50;99.90;;;;;;4979509;28;20030;-71
2022/03/26 04:26:53;;;;;;;89.15;38.22;;;7.50;99.90;;;;;;5008043;28;20052;-71
2022/03/26 04:29:19;;;;;;;92.72;39.83;;;7.50;99.90;;;;;;4996199;28;20037;-71
2022/03/26 04:31:46;;;;;;;91.15;40.40;;;7.40;99.90;;;;;;4995870;28;20174;-71
2022/03/26 04:34:11;;;;;;;90.68;38.38;;;7.40;99.90;;;;;;4995752;28;20033;-71
2022/03/26 04:36:37;;;;;;;93.65;40.00;;;7.40;99.90;;;;;;4996178;28;20019;-72
2022/03/26 04:39:02;;;;;;;85.50;39.22;;;7.30;99.90;;;;;;5015396;28;20026;-72
2022/03/26 04:41:28;;;;;;;90.57;39.97;;;7.30;99.90;;;;;;5015668;28;20099;-71
2022/03/26 04:43:55;;;;;;;91.70;39.65;;;7.30;99.90;;;;;;5015514;28;20050;-71
2022/03/26 04:46:20;;;;;;;89.70;39.42;;;7.20;99.90;;;;;;5014833;28;20014;-71
2022/03/26 04:48:46;;;;;;;97.28;42.03;;;7.20;99.90;;;;;;5000228;28;20073;-70
2022/03/26 04:51:12;;;;;;;97.60;41.85;;;7.10;99.90;;;;;;4979266;28;20031;-71
2022/03/26 04:53:39;;;;;;;94.05;41.30;;;7.10;99.90;;;;;;4995650;28;20031;-70
2022/03/26 04:56:05;;;;;;;102.53;44.17;;;7.10;99.90;;;;;;4995753;28;20027;-71
2022/03/26 04:58:30;;;;;;;95.25;43.13;;;7.10;99.90;;;;;;5007441;28;20035;-71
2022/03/26 05:00:56;;;;;;;102.22;43.53;;;7.10;99.90;;;;;;5018419;28;20029;-71
2022/03/26 05:03:21;;;;;;;100.57;43.67;;;7.10;99.90;;;;;;5018978;28;20019;-72
2022/03/26 05:05:47;;;;;;;112.70;45.92;;;7.10;99.90;;;;;;5019025;28;20042;-71
2022/03/26 05:08:12;;;;;;;106.93;46.10;;;7.00;99.90;;;;;;5006543;28;20058;-72
2022/03/26 05:10:38;;;;;;;109.68;46.88;;;7.00;99.90;;;;;;4998079;28;20023;-70
2022/03/26 05:13:03;;;;;;;116.32;48.17;;;7.00;99.90;;;;;;4998747;28;20320;-70
2022/03/26 05:15:29;;;;;;;116.05;48.50;;;7.00;99.90;;;;;;4998605;28;20087;-70
2022/03/26 05:17:56;;;;;;;114.30;48.33;;;7.00;99.90;;;;;;5012121;28;20239;-71
2022/03/26 05:20:23;;;;;;;118.53;47.95;;;7.00;99.90;;;;;;5018023;28;20050;-71
2022/03/26 05:22:49;;;;;;;116.35;47.47;;;7.00;99.90;;;;;;5018700;28;20050;-71
2022/03/26 05:25:16;;;;;;;111.18;48.97;;;7.00;99.90;;;;;;5018413;28;20030;-71
2022/03/26 05:27:46;;;;;;;111.72;47.53;;;7.00;99.90;;;;;;5015146;28;20034;-71
2022/03/26 05:30:12;;;;;;;107.85;46.25;;;6.90;99.90;;;;;;5018138;28;20042;-71
2022/03/26 05:32:38;;;;;;;113.10;48.20;;;6.90;99.90;;;;;;5018120;28;20061;-70
2022/03/26 05:35:11;;;;;;;117.45;48.70;;;6.90;99.90;;;;;;5016887;28;20098;-70
2022/03/26 05:37:43;;;;;;;110.22;48.00;;;6.80;99.90;;;;;;5014900;28;20065;-71
2022/03/26 05:40:11;;;;;;;107.40;47.85;;;6.80;99.90;;;;;;5017845;28;20024;-71
2022/03/26 05:42:38;;;;;;;117.47;49.83;;;6.80;99.90;;;;;;5001135;28;20022;-70
2022/03/26 05:45:05;;;;;;;112.18;49.50;;;6.80;99.90;;;;;;5000740;28;20073;-70
2022/03/26 05:47:31;;;;;;;119.50;49.88;;;6.80;99.90;;;;;;5014223;28;20042;-71
2022/03/26 05:49:57;;;;;;;118.85;49.80;;;6.70;99.90;;;;;;5017931;28;20038;-73
2022/03/26 05:52:23;;;;;;;117.10;49.92;;;6.70;99.90;;;;;;5017858;28;20089;-71
2022/03/26 05:54:48;;;;;;;116.97;48.20;;;6.70;99.90;;;;;;5016762;28;20026;-71
2022/03/26 05:57:14;;;;;;;112.65;48.45;;;6.70;99.90;;;;;;5015172;28;20026;-69
2022/03/26 05:59:39;;;;;;;117.82;49.78;;;6.70;99.90;;;;;;5005878;28;20057;-71
2022/03/26 06:02:05;;;;;;;118.85;50.70;;;6.70;99.90;;;;;;5017356;28;20042;-71
2022/03/26 06:04:31;;;;;;;117.30;50.45;;;6.70;99.90;;;;;;5017632;28;20081;-71
2022/03/26 06:06:56;;;;;;;113.18;48.25;;;6.70;99.90;;;;;;5015278;28;20030;-70
2022/03/26 06:09:22;;;;;;;122.07;51.55;;;6.70;99.90;;;;;;5011491;28;20069;-72
2022/03/26 06:11:48;;;;;;;122.10;51.10;;;6.70;99.90;;;;;;5010865;28;20025;-71
2022/03/26 06:14:13;;;;;;;119.32;49.65;;;6.60;99.90;;;;;;5012697;28;20050;-72
2022/03/26 06:16:39;;;;;;;125.60;50.47;;;6.60;99.90;;;;;;5013019;28;20057;-71
2022/03/26 06:19:05;;;;;;;125.20;51.50;;;6.60;99.90;;;;;;5011698;28;20030;-71
2022/03/26 06:21:30;;;;;;;113.50;50.10;;;6.60;99.90;;;;;;5015335;28;20031;-73
2022/03/26 06:24:00;;;;;;;123.90;50.33;;;6.70;99.90;;;;;;5015136;28;20029;-72
2022/03/26 06:26:26;;;;;;;126.47;51.88;;;6.70;99.90;;;;;;4993008;28;20035;-71
2022/03/26 06:28:52;;;;;;;123.70;51.53;;;6.70;99.90;;;;;;5011508;28;20013;-71
2022/03/26 06:31:18;;;;;;;119.10;50.20;;;6.70;99.90;;;;;;5012151;28;20022;-71
2022/03/26 06:33:44;;;;;;;126.05;52.85;;;6.70;99.90;;;;;;5012208;28;20086;-71
2022/03/26 06:36:09;;;;;;;118.45;51.17;;;6.70;99.90;;;;;;5010240;28;20030;-72
2022/03/26 06:38:38;;;;;;;126.13;52.75;;;6.80;99.90;;;;;;5007807;28;20102;-73
2022/03/26 06:41:06;;;;;;;126.32;52.53;;;6.80;99.90;;;;;;5017820;28;20086;-72
2022/03/26 06:43:31;;;;;;;122.13;52.13;;;6.80;99.90;;;;;;5015766;28;20455;-71
2022/03/26 06:45:57;;;;;;;124.72;52.38;;;6.80;99.90;;;;;;5010810;28;20085;-71
2022/03/26 06:48:23;;;;;;;128.15;55.22;;;6.90;99.90;;;;;;5014857;28;20041;-72
2022/03/26 06:50:49;;;;;;;127.68;52.83;;;6.90;99.90;;;;;;5005761;28;20030;-70
2022/03/26 06:53:15;;;;;;;135.15;54.30;;;7.00;99.90;;;;;;5012573;28;20090;-70
2022/03/26 06:55:41;;;;;;;130.05;55.72;;;7.00;99.90;;;;;;5012801;28;20086;-72
2022/03/26 06:58:07;;;;;;;131.60;54.55;;;7.00;99.90;;;;;;5011400;28;20033;-72
2022/03/26 07:00:32;;;;;;;134.93;55.10;;;7.10;99.90;;;;;;4998927;28;20030;-72
2022/03/26 07:02:58;;;;;;;135.90;54.97;;;7.10;99.90;;;;;;5015022;28;20026;-71
2022/03/26 07:05:23;;;;;;;136.48;56.28;;;7.10;99.90;;;;;;5015826;28;20030;-71
2022/03/26 07:07:49;;;;;;;144.50;57.63;;;7.20;99.90;;;;;;5015301;28;20030;-72
2022/03/26 07:10:14;;;;;;;139.57;56.33;;;7.30;99.90;;;;;;5005259;28;20054;-72
2022/03/26 07:12:40;;;;;;;140.13;58.72;;;7.30;99.90;;;;;;4996433;28;20046;-72
2022/03/26 07:15:07;;;;;;;144.65;58.33;;;7.40;99.90;;;;;;5008952;28;20036;-72
2022/03/26 07:17:32;;;;;;;144.60;58.55;;;7.50;99.90;;;;;;5000404;28;20031;-72
2022/03/26 07:19:58;;;;;;;140.90;58.65;;;7.60;99.90;;;;;;4996019;28;20058;-72
2022/03/26 07:22:23;;;;;;;136.10;56.70;;;7.60;99.90;;;;;;4995993;28;20035;-72
2022/03/26 07:24:49;;;;;;;146.27;58.97;;;7.70;99.90;;;;;;4995915;28;20031;-72
2022/03/26 07:27:14;;;;;;;141.40;58.17;;;7.80;99.90;;;;;;5011948;28;20049;-71
2022/03/26 07:29:40;;;;;;;145.38;60.53;;;7.90;99.90;;;;;;5014921;28;20030;-71
2022/03/26 07:32:07;;;;;;;143.75;60.15;;;8.00;99.90;;;;;;5014774;28;20034;-71
2022/03/26 07:34:33;;;;;;;144.00;58.92;;;8.00;99.90;;;;;;5006124;28;20030;-71
2022/03/26 07:37:00;;;;;;;134.35;56.38;;;8.10;99.90;;;;;;4992401;28;20078;-71
2022/03/26 07:39:26;;;;;;;136.48;57.90;;;8.30;99.90;;;;;;4997405;28;20327;-72
2022/03/26 07:41:52;;;;;;;126.82;55.00;;;8.40;99.90;;;;;;4996859;28;20035;-72
2022/03/26 07:44:17;;;;;;;131.75;54.42;;;8.50;99.90;;;;;;5000417;28;20057;-72
2022/03/26 07:46:43;;;;;;;128.30;53.58;;;8.60;99.90;;;;;;5003552;28;20086;-72
2022/03/26 07:49:09;;;;;;;111.22;48.50;;;8.70;99.90;;;;;;4996429;28;20018;-72
2022/03/26 07:51:35;;;;;;;100.53;43.85;;;8.80;99.90;;;;;;4996403;28;20018;-72
2022/03/26 07:54:00;;;;;;;102.00;42.28;;;9.00;99.90;;;;;;4996497;28;20014;-72
2022/03/26 07:56:26;;;;;;;87.72;39.72;;;9.10;99.90;;;;;;5007275;28;20040;-72
2022/03/26 07:58:52;;;;;;;88.85;39.00;;;9.20;99.90;;;;;;5002230;28;20030;-71
2022/03/26 08:01:17;;;;;;;94.47;41.05;;;9.40;99.90;;;;;;5013651;28;20002;-72
2022/03/26 08:03:43;;;;;;;96.97;42.28;;;9.50;99.90;;;;;;5007544;28;20038;-72
2022/03/26 08:06:08;;;;;;;93.32;42.92;;;9.70;99.90;;;;;;5015495;28;20037;-71
2022/03/26 08:08:34;;;;;;;91.15;41.45;;;9.80;99.90;;;;;;5015795;28;20018;-72
2022/03/26 08:11:00;;;;;;;86.97;40.38;;;10.00;99.90;;;;;;5006200;28;20085;-72
2022/03/26 08:13:26;;;;;;;90.68;40.60;;;10.10;99.90;;;;;;4996703;28;20125;-73
2022/03/26 08:15:51;;;;;;;89.90;40.70;;;10.30;99.90;;;;;;5003267;28;20031;-72
2022/03/26 08:18:17;;;;;;;88.30;40.35;;;10.50;99.90;;;;;;4991133;28;20059;-69
2022/03/26 08:20:45;;;;;;;86.70;39.80;;;10.70;99.90;;;;;;4994489;28;20050;-70
2022/03/26 08:23:11;;;;;;;95.70;41.00;;;10.80;99.90;;;;;;5000727;28;20038;-71
2022/03/26 08:28:21;;;;;;;93.90;40.03;;;11.20;99.90;;;;;;4993080;28;20037;-71
2022/03/26 08:30:48;;;;;;;87.43;40.05;;;11.40;99.90;;;;;;5001286;28;20078;-71
2022/03/26 08:33:13;;;;;;;88.40;41.97;;;11.50;99.90;;;;;;4991469;28;20034;-71
2022/03/26 08:35:41;;;;;;;94.05;42.03;;;11.70;99.90;;;;;;5006139;28;20073;-72
2022/03/26 08:38:07;;;;;;;90.90;40.40;;;11.90;99.90;;;;;;4988125;28;20027;-72
2022/03/26 08:40:33;;;;;;;97.25;41.38;;;12.10;99.90;;;;;;4976750;28;20034;-73
2022/03/26 08:42:59;;;;;;;100.85;42.03;;;12.30;99.90;;;;;;4967677;28;20027;-73
2022/03/26 08:45:29;;;;;;;90.53;40.40;;;12.50;99.90;;;;;;4992051;28;20034;-74
2022/03/26 08:47:55;;;;;;;95.07;41.25;;;12.70;99.90;;;;;;4995252;28;20034;-73
2022/03/26 08:50:21;;;;;;;85.53;39.65;;;12.90;99.90;;;;;;4981003;28;20126;-72
2022/03/26 08:52:49;;;;;;;92.63;40.33;;;13.10;99.90;;;;;;4975871;28;20390;-72
2022/03/26 08:55:16;;;;;;;87.65;40.28;;;13.20;99.90;;;;;;4976363;28;20042;-72
2022/03/26 08:57:42;;;;;;;88.05;40.15;;;13.30;99.90;;;;;;4974803;28;20081;-72
2022/03/26 09:00:10;;;;;;;76.70;37.55;;;13.40;99.90;;;;;;4976204;28;20406;-72
2022/03/26 09:02:37;;;;;;;76.80;38.20;;;13.60;99.90;;;;;;4987709;28;20089;-72
2022/03/26 09:05:04;;;;;;;84.35;40.15;;;13.80;99.90;;;;;;4975788;28;20035;-72
2022/03/26 09:07:29;;;;;;;76.60;37.33;;;14.00;99.90;;;;;;4990702;28;20027;-71
2022/03/26 09:09:55;;;;;;;83.78;39.97;;;14.10;99.90;;;;;;4976401;28;20030;-73
2022/03/26 09:12:21;;;;;;;76.00;38.85;;;14.20;99.90;;;;;;4957669;28;20089;-72
2022/03/26 09:14:47;;;;;;;73.63;35.17;;;14.30;99.90;;;;;;4974547;28;20049;-70
2022/03/26 09:17:12;;;;;;;71.65;34.65;;;14.50;99.90;;;;;;4974850;28;20030;-70
2022/03/26 09:19:38;;;;;;;77.07;36.90;;;14.60;99.90;;;;;;4974192;28;20065;-70
2022/03/26 09:22:03;;;;;;;76.25;36.30;;;14.70;99.90;;;;;;4974294;28;20042;-70
2022/03/26 09:24:29;;;;;;;73.47;34.90;;;14.70;99.90;;;;;;4983295;28;20427;-70
2022/03/26 09:26:55;;;;;;;64.13;31.73;;;14.90;99.90;;;;;;4994490;28;20483;-70
2022/03/26 09:29:20;;;;;;;65.70;32.55;;;15.00;99.90;;;;;;4994010;28;20030;-71
2022/03/26 09:31:46;;;;;;;70.03;33.88;;;15.20;99.90;;;;;;4994497;28;20026;-69
2022/03/26 09:34:12;;;;;;;64.32;31.63;;;15.30;99.90;;;;;;4993620;28;20506;-70
2022/03/26 09:36:38;;;;;;;59.42;30.73;;;15.40;99.90;;;;;;4994653;28;20109;-70
2022/03/26 09:39:03;;;;;;;62.92;31.75;;;15.50;99.90;;;;;;4994280;28;20371;-70
2022/03/26 09:41:31;;;;;;;57.13;27.92;;;15.60;99.90;;;;;;4994493;28;20101;-70
2022/03/26 09:43:57;;;;;;;51.47;25.30;;;15.70;98.70;;;;;;4994303;28;20023;-69
2022/03/26 09:46:24;;;;;;;48.92;25.08;;;15.70;98.40;;;;;;4993669;28;20037;-69
2022/03/26 09:48:51;;;;;;;51.10;24.27;;;15.80;97.50;;;;;;4996487;28;20023;-68
2022/03/26 09:51:21;;;;;;;40.97;21.33;;;15.90;97.00;;;;;;4994728;28;20049;-69
2022/03/26 09:53:49;;;;;;;49.85;23.70;;;16.00;96.20;;;;;;4982072;28;20068;-69
2022/03/26 09:56:15;;;;;;;50.65;26.38;;;16.10;95.30;;;;;;5006342;28;20069;-70
2022/03/26 09:58:41;;;;;;;51.90;23.55;;;16.20;94.00;;;;;;5000931;28;20027;-70
2022/03/26 10:01:07;;;;;;;49.63;25.13;;;16.30;94.00;;;;;;4995764;28;20060;-69
2022/03/26 10:03:33;;;;;;;47.92;25.23;;;16.50;93.80;;;;;;4990514;28;20023;-68
2022/03/26 10:06:07;;;;;;;47.97;25.23;;;16.70;92.90;;;;;;4988309;28;20094;-70
2022/03/26 10:08:37;;;;;;;54.38;28.92;;;16.80;92.30;;;;;;5005277;28;20029;-69
2022/03/26 10:11:03;;;;;;;57.10;29.08;;;16.90;90.10;;;;;;4988169;28;20014;-70
2022/03/26 10:13:37;;;;;;;54.58;28.17;;;16.80;90.50;;;;;;4995532;28;21022;-71
2022/03/26 10:16:13;;;;;;;55.78;27.77;;;16.90;90.20;;;;;;4994792;28;20069;-72
2022/03/26 10:18:47;;;;;;;49.63;26.45;;;16.80;90.00;;;;;;4995544;28;20035;-70
2022/03/26 10:21:18;;;;;;;53.03;26.40;;;16.80;89.50;;;;;;4991667;28;20041;-69
2022/03/26 10:23:44;;;;;;;54.15;27.35;;;16.80;88.20;;;;;;4982165;28;20403;-68
2022/03/26 10:26:16;;;;;;;51.85;26.05;;;16.70;88.40;;;;;;4984314;28;20034;-69
2022/03/26 10:28:42;;;;;;;49.88;25.92;;;16.80;89.10;;;;;;4998996;28;20099;-68
2022/03/26 10:34:08;;;;;;;50.47;24.65;;;16.70;87.00;;;;;;4994045;28;20303;-69
2022/03/26 10:36:39;;;;;;;43.15;21.60;;;16.80;86.70;;;;;;4993160;28;20034;-69
2022/03/26 10:39:06;;;;;;;41.78;18.88;;;16.80;83.90;;;;;;4986646;28;20027;-69
2022/03/26 10:41:33;;;;;;;46.35;20.75;;;16.80;83.10;;;;;;4990788;28;20070;-71
2022/03/26 10:44:13;;;;;;;44.70;21.02;;;16.90;81.80;;;;;;4990934;28;20029;-72
2022/03/26 10:46:53;;;;;;;42.92;20.75;;;17.00;80.40;;;;;;4983789;28;20042;-70
2022/03/26 10:49:32;;;;;;;45.97;20.00;;;17.10;78.20;;;;;;4983211;28;20041;-69
2022/03/26 10:52:13;;;;;;;50.63;22.80;;;17.10;77.00;;;;;;4977320;28;20002;-68
2022/03/26 10:54:39;;;;;;;49.17;24.20;;;17.20;75.80;;;;;;4980090;28;20035;-69
2022/03/26 10:57:05;;;;;;;56.90;24.95;;;17.10;75.50;;;;;;4994052;28;20386;-70
2022/03/26 10:59:31;;;;;;;53.10;25.63;;;17.20;76.10;;;;;;4994590;28;20026;-70
2022/03/26 11:01:58;;;;;;;53.80;25.90;;;17.30;76.70;;;;;;4994931;28;20031;-72
2022/03/26 11:04:26;;;;;;;61.72;27.35;;;17.40;76.90;;;;;;4995406;28;20037;-72
2022/03/26 11:06:52;;;;;;;64.25;30.33;;;17.50;76.40;;;;;;4996132;28;20077;-69
2022/03/26 11:09:19;;;;;;;63.95;32.10;;;17.60;75.90;;;;;;5001133;28;20036;-69
2022/03/26 11:11:45;;;;;;;68.47;33.08;;;17.70;76.40;;;;;;5002705;28;20023;-70
2022/03/26 11:14:28;;;;;;;75.03;35.15;;;17.80;76.00;;;;;;5005068;28;20491;-71
2022/03/26 11:17:00;;;;;;;66.20;32.95;;;17.80;75.30;;;;;;4986490;28;20046;-72
2022/03/26 11:19:53;;;;;;;74.20;35.30;;;17.70;73.80;;;;;;5002129;28;20033;-72
2022/03/26 11:22:49;;;;;;;73.82;34.70;;;17.70;73.60;;;;;;5003961;28;20029;-71
2022/03/26 11:25:36;;;;;;;73.32;31.80;;;17.80;73.40;;;;;;5000686;28;20042;-70
2022/03/26 11:28:31;;;;;;;63.25;31.45;;;17.80;70.70;;;;;;5000366;28;20582;-69
2022/03/26 11:31:01;;;;;;;62.92;29.60;;;17.80;70.70;;;;;;5001018;28;20033;-69
2022/03/26 11:33:33;;;;;;;68.70;31.13;;;17.90;69.20;;;;;;4998799;28;20022;-69
2022/03/26 11:36:02;;;;;;;72.60;32.95;;;18.00;68.70;;;;;;4998276;28;20030;-69
2022/03/26 11:38:29;;;;;;;69.43;31.88;;;18.10;68.10;;;;;;4998636;28;20023;-69
2022/03/26 11:40:57;;;;;;;74.45;33.78;;;18.20;67.70;;;;;;5001328;28;20034;-70
2022/03/26 11:43:44;;;;;;;68.53;33.47;;;18.30;67.60;;;;;;5000070;28;20105;-70
2022/03/26 11:51:56;;;;;;;73.43;36.63;;;18.60;64.60;;;;;;5003258;28;20033;-69
2022/03/26 11:54:22;;;;;;;79.03;39.33;;;18.70;63.60;;;;;;5002650;28;20098;-69
2022/03/26 11:57:12;;;;;;;82.97;38.75;;;18.80;63.00;;;;;;4999889;28;20058;-70
2022/03/26 11:59:39;;;;;;;78.60;38.13;;;18.80;63.50;;;;;;4997966;28;20042;-69
2022/03/26 12:02:22;;;;;;;74.47;37.20;;;18.80;63.60;;;;;;4997887;28;20046;-70
2022/03/26 12:04:49;;;;;;;79.70;38.08;;;18.90;62.60;;;;;;4998579;28;20014;-70
2022/03/26 12:07:15;;;;;;;73.88;36.25;;;18.90;62.10;;;;;;5001709;28;20390;-69
2022/03/26 12:09:41;;;;;;;79.78;37.47;;;18.80;62.50;;;;;;5003344;28;20064;-69
2022/03/26 12:12:10;;;;;;;77.63;35.47;;;18.80;62.20;;;;;;5002574;28;20023;-69
2022/03/26 12:15:01;;;;;;;75.60;35.80;;;18.80;61.90;;;;;;5000672;28;20049;-69
2022/03/26 12:17:54;;;;;;;80.40;36.28;;;18.90;62.80;;;;;;5001139;28;20033;-69
2022/03/26 12:20:40;;;;;;;79.78;37.75;;;19.00;59.80;;;;;;4994314;28;20042;-68
2022/03/26 12:23:10;;;;;;;79.13;35.50;;;19.00;58.60;;;;;;4999222;28;20105;-71
2022/03/26 12:25:37;;;;;;;77.15;36.00;;;18.80;59.50;;;;;;4997349;28;20033;-72
2022/03/26 12:28:04;;;;;;;75.10;35.30;;;18.90;59.60;;;;;;4997602;28;20049;-71
2022/03/26 12:30:30;;;;;;;80.00;34.30;;;18.90;59.20;;;;;;4998803;28;20038;-71
2022/03/26 12:32:58;;;;;;;75.72;36.75;;;19.00;58.90;;;;;;4996701;28;20034;-71
2022/03/26 12:35:24;;;;;;;80.07;34.70;;;19.10;58.30;;;;;;4998771;28;20355;-73
2022/03/26 12:37:53;;;;;;;84.10;35.90;;;19.10;58.40;;;;;;4992647;28;20077;-70
2022/03/26 12:40:18;;;;;;;77.20;35.42;;;19.10;57.50;;;;;;4994946;28;20103;-71
2022/03/26 12:42:44;;;;;;;77.55;35.45;;;19.00;58.10;;;;;;4997340;28;20057;-71